sensor_id;sensor_type;location;lat;lon;timestamp;pressure;altitude;pressure_sealevel;temperature;humidity
22572;BME280;11452;53.368;14.658;2022-08-07T00:00:30;102072.14;;;16.12;54.89
22572;BME280;11452;53.368;14.658;2022-08-07T00:05:36;102068.19;;;16.10;55.15
22572;BME280;11452;53.368;14.658;2022-08-07T00:10:42;102072.80;;;16.08;55.24
22572;BME280;11452;53.368;14.658;2022-08-07T00:15:50;102071.05;;;16.07;55.58
22572;BME280;11452;53.368;14.658;2022-08-07T00:20:59;102067.74;;;16.02;55.60
22572;BME280;11452;53.368;14.658;2022-08-07T00:26:08;102068.78;;;16.00;55.82
22572;BME280;11452;53.368;14.658;2022-08-07T00:31:16;102066.47;;;15.93;56.04
22572;BME280;11452;53.368;14.658;2022-08-07T00:36:22;102059.41;;;15.91;56.31
22572;BME280;11452;53.368;14.658;2022-08-07T00:41:31;102068.23;;;15.86;56.35
22572;BME280;11452;53.368;14.658;2022-08-07T00:46:39;102063.09;;;15.81;56.66
22572;BME280;11452;53.368;14.658;2022-08-07T00:51:46;102070.95;;;15.77;56.78
22572;BME280;11452;53.368;14.658;2022-08-07T00:56:54;102067.28;;;15.71;56.96
22572;BME280;11452;53.368;14.658;2022-08-07T01:02:07;102065.40;;;15.65;57.17
22572;BME280;11452;53.368;14.658;2022-08-07T01:07:12;102066.05;;;15.61;57.53
22572;BME280;11452;53.368;14.658;2022-08-07T01:12:18;102061.89;;;15.55;57.56
22572;BME280;11452;53.368;14.658;2022-08-07T01:17:26;102068.76;;;15.52;57.83
22572;BME280;11452;53.368;14.658;2022-08-07T01:22:34;102065.20;;;15.52;58.03
22572;BME280;11452;53.368;14.658;2022-08-07T01:27:42;102065.91;;;15.47;58.12
22572;BME280;11452;53.368;14.658;2022-08-07T01:32:50;102061.69;;;15.34;58.31
22572;BME280;11452;53.368;14.658;2022-08-07T01:37:57;102055.84;;;15.26;58.23
22572;BME280;11452;53.368;14.658;2022-08-07T01:43:03;102055.48;;;15.16;58.39
22572;BME280;11452;53.368;14.658;2022-08-07T01:48:09;102053.27;;;15.07;59.06
22572;BME280;11452;53.368;14.658;2022-08-07T01:53:20;102052.24;;;15.10;59.51
22572;BME280;11452;53.368;14.658;2022-08-07T01:58:33;102057.55;;;15.11;59.79
22572;BME280;11452;53.368;14.658;2022-08-07T02:03:44;102056.05;;;15.06;59.64
22572;BME280;11452;53.368;14.658;2022-08-07T02:08:52;102056.00;;;14.90;60.24
22572;BME280;11452;53.368;14.658;2022-08-07T02:14:01;102064.31;;;14.85;60.58
22572;BME280;11452;53.368;14.658;2022-08-07T02:19:10;102060.93;;;14.73;60.06
22572;BME280;11452;53.368;14.658;2022-08-07T02:24:20;102055.55;;;14.82;61.30
22572;BME280;11452;53.368;14.658;2022-08-07T02:29:27;102061.94;;;14.97;61.61
22572;BME280;11452;53.368;14.658;2022-08-07T02:34:36;102055.92;;;15.00;61.88
22572;BME280;11452;53.368;14.658;2022-08-07T02:39:47;102055.45;;;15.01;61.66
22572;BME280;11452;53.368;14.658;2022-08-07T02:44:56;102052.36;;;15.00;61.91
22572;BME280;11452;53.368;14.658;2022-08-07T02:50:05;102054.66;;;14.99;62.07
22572;BME280;11452;53.368;14.658;2022-08-07T02:55:24;102056.00;;;14.99;62.20
22572;BME280;11452;53.368;14.658;2022-08-07T03:00:34;102059.96;;;15.00;62.33
22572;BME280;11452;53.368;14.658;2022-08-07T03:05:43;102057.73;;;14.91;62.31
22572;BME280;11452;53.368;14.658;2022-08-07T03:10:51;102058.45;;;14.95;62.75
22572;BME280;11452;53.368;14.658;2022-08-07T03:16:00;102058.33;;;14.80;62.64
22572;BME280;11452;53.368;14.658;2022-08-07T03:21:07;102061.25;;;14.76;63.35
22572;BME280;11452;53.368;14.658;2022-08-07T03:26:17;102053.89;;;14.79;63.32
22572;BME280;11452;53.368;14.658;2022-08-07T03:36:54;102060.53;;;14.72;63.59
22572;BME280;11452;53.368;14.658;2022-08-07T03:42:03;102058.97;;;14.60;63.41
22572;BME280;11452;53.368;14.658;2022-08-07T03:47:10;102056.80;;;14.66;64.29
22572;BME280;11452;53.368;14.658;2022-08-07T03:52:22;102058.79;;;14.71;64.17
22572;BME280;11452;53.368;14.658;2022-08-07T03:57:32;102054.52;;;14.67;64.75
22572;BME280;11452;53.368;14.658;2022-08-07T04:02:41;102065.77;;;14.75;64.83
22572;BME280;11452;53.368;14.658;2022-08-07T04:07:51;102067.50;;;14.76;64.80
22572;BME280;11452;53.368;14.658;2022-08-07T04:12:59;102074.69;;;14.84;65.52
22572;BME280;11452;53.368;14.658;2022-08-07T04:18:07;102077.37;;;14.93;65.77
22572;BME280;11452;53.368;14.658;2022-08-07T04:23:15;102080.59;;;15.17;65.98
22572;BME280;11452;53.368;14.658;2022-08-07T04:28:23;102080.80;;;15.30;66.04
22572;BME280;11452;53.368;14.658;2022-08-07T04:33:31;102078.37;;;15.41;65.87
22572;BME280;11452;53.368;14.658;2022-08-07T04:38:39;102083.95;;;15.62;66.01
22572;BME280;11452;53.368;14.658;2022-08-07T04:43:45;102084.08;;;15.92;66.56
22572;BME280;11452;53.368;14.658;2022-08-07T05:05:32;102092.09;;;16.62;65.34
22572;BME280;11452;53.368;14.658;2022-08-07T05:10:54;102101.45;;;16.93;65.01
22572;BME280;11452;53.368;14.658;2022-08-07T05:16:00;102098.59;;;17.11;64.57
22572;BME280;11452;53.368;14.658;2022-08-07T05:21:09;102100.72;;;17.27;64.16
22572;BME280;11452;53.368;14.658;2022-08-07T05:26:21;102102.58;;;17.41;63.77
22572;BME280;11452;53.368;14.658;2022-08-07T05:31:32;102103.54;;;17.61;63.69
22572;BME280;11452;53.368;14.658;2022-08-07T05:36:42;102103.03;;;17.83;63.50
22572;BME280;11452;53.368;14.658;2022-08-07T05:41:52;102103.09;;;18.03;63.03
22572;BME280;11452;53.368;14.658;2022-08-07T05:47:01;102108.25;;;18.27;62.31
22572;BME280;11452;53.368;14.658;2022-08-07T05:52:09;102107.22;;;18.42;62.25
22572;BME280;11452;53.368;14.658;2022-08-07T05:57:16;102109.58;;;18.61;61.72
22572;BME280;11452;53.368;14.658;2022-08-07T06:02:26;102116.09;;;19.61;58.32
22572;BME280;11452;53.368;14.658;2022-08-07T06:07:35;102115.80;;;19.21;59.98
22572;BME280;11452;53.368;14.658;2022-08-07T06:12:44;102114.41;;;19.28;59.84
22572;BME280;11452;53.368;14.658;2022-08-07T06:17:50;102117.98;;;19.28;59.08
22572;BME280;11452;53.368;14.658;2022-08-07T06:23:00;102119.16;;;19.37;58.80
22572;BME280;11452;53.368;14.658;2022-08-07T06:28:10;102117.73;;;19.31;58.22
22572;BME280;11452;53.368;14.658;2022-08-07T06:33:18;102120.31;;;19.27;57.82
22572;BME280;11452;53.368;14.658;2022-08-07T06:38:26;102127.69;;;19.25;57.18
22572;BME280;11452;53.368;14.658;2022-08-07T06:43:35;102130.41;;;19.51;57.48
22572;BME280;11452;53.368;14.658;2022-08-07T06:48:45;102131.39;;;19.62;56.98
22572;BME280;11452;53.368;14.658;2022-08-07T06:53:54;102138.00;;;19.58;56.68
22572;BME280;11452;53.368;14.658;2022-08-07T06:59:21;102145.52;;;19.73;56.21
22572;BME280;11452;53.368;14.658;2022-08-07T07:04:19;102146.06;;;19.78;54.91
22572;BME280;11452;53.368;14.658;2022-08-07T07:09:29;102142.81;;;19.73;55.83
22572;BME280;11452;53.368;14.658;2022-08-07T07:14:52;102138.10;;;20.00;55.32
22572;BME280;11452;53.368;14.658;2022-08-07T07:19:59;102140.23;;;20.08;54.63
22572;BME280;11452;53.368;14.658;2022-08-07T07:25:08;102134.89;;;20.01;54.51
22572;BME280;11452;53.368;14.658;2022-08-07T07:30:16;102129.73;;;20.27;54.19
22572;BME280;11452;53.368;14.658;2022-08-07T07:35:26;102140.22;;;20.26;53.48
22572;BME280;11452;53.368;14.658;2022-08-07T07:40:35;102126.64;;;20.26;53.54
22572;BME280;11452;53.368;14.658;2022-08-07T07:45:43;102123.18;;;20.43;53.00
22572;BME280;11452;53.368;14.658;2022-08-07T07:50:53;102109.19;;;20.36;52.79
22572;BME280;11452;53.368;14.658;2022-08-07T07:56:00;102111.92;;;20.18;52.37
22572;BME280;11452;53.368;14.658;2022-08-07T08:01:09;102106.31;;;20.32;53.23
22572;BME280;11452;53.368;14.658;2022-08-07T08:06:17;102098.95;;;20.58;53.26
22572;BME280;11452;53.368;14.658;2022-08-07T08:11:24;102095.80;;;20.75;52.46
22572;BME280;11452;53.368;14.658;2022-08-07T08:16:36;102093.92;;;20.70;51.46
22572;BME280;11452;53.368;14.658;2022-08-07T08:21:46;102102.65;;;21.03;52.20
22572;BME280;11452;53.368;14.658;2022-08-07T08:27:14;102105.25;;;21.04;50.68
22572;BME280;11452;53.368;14.658;2022-08-07T08:32:24;102099.22;;;21.12;50.09
22572;BME280;11452;53.368;14.658;2022-08-07T08:37:36;102098.64;;;21.25;49.39
22572;BME280;11452;53.368;14.658;2022-08-07T08:42:55;102099.00;;;21.21;49.63
22572;BME280;11452;53.368;14.658;2022-08-07T08:48:12;102091.09;;;21.34;49.07
22572;BME280;11452;53.368;14.658;2022-08-07T08:53:29;102097.94;;;21.51;48.98
22572;BME280;11452;53.368;14.658;2022-08-07T08:58:52;102087.03;;;21.62;49.36
22572;BME280;11452;53.368;14.658;2022-08-07T09:04:10;102087.88;;;21.85;49.06
22572;BME280;11452;53.368;14.658;2022-08-07T09:20:31;102076.56;;;22.50;47.25
22572;BME280;11452;53.368;14.658;2022-08-07T09:25:54;102070.78;;;22.64;46.74
22572;BME280;11452;53.368;14.658;2022-08-07T09:36:33;102068.17;;;22.68;44.84
22572;BME280;11452;53.368;14.658;2022-08-07T09:52:32;102059.38;;;23.11;44.40
22572;BME280;11452;53.368;14.658;2022-08-07T10:19:37;102043.73;;;22.72;42.10
22572;BME280;11452;53.368;14.658;2022-08-07T10:30:24;102035.61;;;22.87;40.97
22572;BME280;11452;53.368;14.658;2022-08-07T10:35:33;102032.59;;;22.96;41.76
22572;BME280;11452;53.368;14.658;2022-08-07T10:40:46;102032.86;;;22.93;39.94
22572;BME280;11452;53.368;14.658;2022-08-07T10:45:54;102018.20;;;22.73;40.71
22572;BME280;11452;53.368;14.658;2022-08-07T10:56:39;102001.78;;;23.60;40.96
22572;BME280;11452;53.368;14.658;2022-08-07T11:01:57;101996.86;;;23.69;40.14
22572;BME280;11452;53.368;14.658;2022-08-07T11:07:03;102001.05;;;23.73;39.76
22572;BME280;11452;53.368;14.658;2022-08-07T11:12:15;101985.83;;;24.19;39.62
22572;BME280;11452;53.368;14.658;2022-08-07T11:17:38;101980.45;;;24.42;38.99
22572;BME280;11452;53.368;14.658;2022-08-07T11:22:41;101977.00;;;24.31;37.18
22572;BME280;11452;53.368;14.658;2022-08-07T11:33:21;101978.35;;;23.58;37.15
22572;BME280;11452;53.368;14.658;2022-08-07T11:38:32;101967.10;;;23.66;37.52
22572;BME280;11452;53.368;14.658;2022-08-07T11:43:46;101962.72;;;23.79;36.87
22572;BME280;11452;53.368;14.658;2022-08-07T12:10:26;101929.77;;;24.58;36.49
22572;BME280;11452;53.368;14.658;2022-08-07T12:15:37;101929.21;;;24.91;35.58
22572;BME280;11452;53.368;14.658;2022-08-07T12:20:51;101939.95;;;24.98;35.28
22572;BME280;11452;53.368;14.658;2022-08-07T12:25:59;101927.80;;;25.10;34.55
22572;BME280;11452;53.368;14.658;2022-08-07T12:31:10;101912.59;;;24.89;33.85
22572;BME280;11452;53.368;14.658;2022-08-07T12:36:16;101916.66;;;24.84;34.39
22572;BME280;11452;53.368;14.658;2022-08-07T12:41:26;101906.41;;;24.86;33.73
22572;BME280;11452;53.368;14.658;2022-08-07T12:47:02;101911.61;;;24.43;33.91
22572;BME280;11452;53.368;14.658;2022-08-07T12:52:13;101907.08;;;24.38;34.44
22572;BME280;11452;53.368;14.658;2022-08-07T12:57:24;101904.52;;;24.27;34.03
22572;BME280;11452;53.368;14.658;2022-08-07T13:18:42;101884.44;;;25.33;34.42
22572;BME280;11452;53.368;14.658;2022-08-07T13:23:51;101882.08;;;25.07;32.77
22572;BME280;11452;53.368;14.658;2022-08-07T13:29:09;101876.33;;;25.28;33.06
22572;BME280;11452;53.368;14.658;2022-08-07T13:40:01;101870.41;;;26.03;32.99
22572;BME280;11452;53.368;14.658;2022-08-07T13:45:05;101871.76;;;25.77;32.02
22572;BME280;11452;53.368;14.658;2022-08-07T13:50:27;101863.62;;;25.54;32.31
22572;BME280;11452;53.368;14.658;2022-08-07T13:55:36;101862.84;;;25.79;32.30
22572;BME280;11452;53.368;14.658;2022-08-07T14:00:47;101856.67;;;25.46;32.16
22572;BME280;11452;53.368;14.658;2022-08-07T14:05:54;101847.14;;;25.50;32.27
22572;BME280;11452;53.368;14.658;2022-08-07T14:11:00;101847.03;;;25.56;32.10
22572;BME280;11452;53.368;14.658;2022-08-07T14:16:13;101836.63;;;25.59;32.04
22572;BME280;11452;53.368;14.658;2022-08-07T14:21:24;101831.56;;;25.50;32.32
22572;BME280;11452;53.368;14.658;2022-08-07T14:26:56;101831.53;;;25.82;32.14
22572;BME280;11452;53.368;14.658;2022-08-07T14:32:05;101824.64;;;25.96;32.79
22572;BME280;11452;53.368;14.658;2022-08-07T14:37:16;101830.91;;;26.10;32.05
22572;BME280;11452;53.368;14.658;2022-08-07T14:42:26;101825.11;;;26.17;31.23
22572;BME280;11452;53.368;14.658;2022-08-07T14:47:34;101825.58;;;26.08;31.14
22572;BME280;11452;53.368;14.658;2022-08-07T14:52:41;101819.59;;;25.87;31.52
22572;BME280;11452;53.368;14.658;2022-08-07T14:57:50;101812.53;;;25.63;31.53
22572;BME280;11452;53.368;14.658;2022-08-07T15:02:59;101805.85;;;25.83;32.74
22572;BME280;11452;53.368;14.658;2022-08-07T15:08:09;101802.05;;;25.98;32.14
22572;BME280;11452;53.368;14.658;2022-08-07T15:13:18;101800.80;;;25.92;31.79
22572;BME280;11452;53.368;14.658;2022-08-07T15:18:34;101815.33;;;25.88;31.56
22572;BME280;11452;53.368;14.658;2022-08-07T15:23:42;101807.54;;;25.44;31.87
22572;BME280;11452;53.368;14.658;2022-08-07T15:28:52;101804.59;;;25.20;32.51
22572;BME280;11452;53.368;14.658;2022-08-07T15:34:01;101800.91;;;24.98;33.24
22572;BME280;11452;53.368;14.658;2022-08-07T15:39:11;101800.48;;;25.20;33.49
22572;BME280;11452;53.368;14.658;2022-08-07T15:44:20;101798.62;;;25.25;33.84
22572;BME280;11452;53.368;14.658;2022-08-07T15:49:32;101791.81;;;25.46;33.67
22572;BME280;11452;53.368;14.658;2022-08-07T15:54:43;101783.84;;;25.53;33.54
22572;BME280;11452;53.368;14.658;2022-08-07T15:59:52;101784.77;;;25.44;33.71
22572;BME280;11452;53.368;14.658;2022-08-07T16:05:02;101779.16;;;25.85;35.00
22572;BME280;11452;53.368;14.658;2022-08-07T16:10:15;101771.78;;;26.75;35.27
22572;BME280;11452;53.368;14.658;2022-08-07T16:15:30;101765.45;;;27.70;33.87
22572;BME280;11452;53.368;14.658;2022-08-07T16:20:58;101763.84;;;28.16;32.11
22572;BME280;11452;53.368;14.658;2022-08-07T16:26:39;101764.34;;;28.28;31.45
22572;BME280;11452;53.368;14.658;2022-08-07T16:32:05;101765.97;;;27.81;29.66
22572;BME280;11452;53.368;14.658;2022-08-07T16:37:17;101770.39;;;27.34;30.43
22572;BME280;11452;53.368;14.658;2022-08-07T16:42:52;101779.16;;;27.53;29.96
22572;BME280;11452;53.368;14.658;2022-08-07T16:48:32;101774.36;;;27.39;30.19
22572;BME280;11452;53.368;14.658;2022-08-07T16:59:23;101760.98;;;28.52;29.24
22572;BME280;11452;53.368;14.658;2022-08-07T17:04:35;101763.75;;;27.65;28.73
22572;BME280;11452;53.368;14.658;2022-08-07T17:10:03;101763.55;;;26.75;28.79
22572;BME280;11452;53.368;14.658;2022-08-07T17:15:40;101765.61;;;26.31;29.52
22572;BME280;11452;53.368;14.658;2022-08-07T17:20:38;101774.39;;;26.13;30.36
22572;BME280;11452;53.368;14.658;2022-08-07T17:31:20;101769.22;;;25.84;31.11
22572;BME280;11452;53.368;14.658;2022-08-07T17:36:29;101768.27;;;25.71;31.61
22572;BME280;11452;53.368;14.658;2022-08-07T17:41:42;101767.10;;;25.56;31.59
22572;BME280;11452;53.368;14.658;2022-08-07T17:47:03;101766.51;;;25.48;32.20
22572;BME280;11452;53.368;14.658;2022-08-07T17:52:23;101765.35;;;25.33;32.37
22572;BME280;11452;53.368;14.658;2022-08-07T18:02:59;101755.52;;;25.05;33.22
22572;BME280;11452;53.368;14.658;2022-08-07T18:08:17;101751.31;;;24.97;33.67
22572;BME280;11452;53.368;14.658;2022-08-07T18:13:41;101750.45;;;24.82;33.93
22572;BME280;11452;53.368;14.658;2022-08-07T18:18:48;101749.86;;;24.61;34.59
22572;BME280;11452;53.368;14.658;2022-08-07T18:30:15;101755.17;;;24.12;35.82
22572;BME280;11452;53.368;14.658;2022-08-07T18:40:17;101762.53;;;23.69;37.08
22572;BME280;11452;53.368;14.658;2022-08-07T18:45:38;101763.59;;;23.43;37.59
22572;BME280;11452;53.368;14.658;2022-08-07T18:50:47;101772.02;;;23.17;38.12
22572;BME280;11452;53.368;14.658;2022-08-07T18:56:27;101772.17;;;22.90;38.77
22572;BME280;11452;53.368;14.658;2022-08-07T19:01:42;101775.46;;;22.69;39.15
22572;BME280;11452;53.368;14.658;2022-08-07T19:07:00;101776.02;;;22.38;39.79
22572;BME280;11452;53.368;14.658;2022-08-07T19:17:27;101786.22;;;21.94;40.82
22572;BME280;11452;53.368;14.658;2022-08-07T19:27:42;101787.42;;;22.22;41.11
22572;BME280;11452;53.368;14.658;2022-08-07T19:32:52;101780.50;;;21.56;41.97
22572;BME280;11452;53.368;14.658;2022-08-07T19:38:04;101784.48;;;21.25;42.59
22572;BME280;11452;53.368;14.658;2022-08-07T19:43:18;101792.19;;;21.03;43.18
22572;BME280;11452;53.368;14.658;2022-08-07T19:48:36;101799.77;;;20.89;43.56
22572;BME280;11452;53.368;14.658;2022-08-07T19:53:49;101795.23;;;20.72;44.08
22572;BME280;11452;53.368;14.658;2022-08-07T19:58:57;101796.09;;;20.62;44.50
22572;BME280;11452;53.368;14.658;2022-08-07T20:04:06;101806.86;;;20.52;44.84
22572;BME280;11452;53.368;14.658;2022-08-07T20:09:14;101805.14;;;20.40;45.15
22572;BME280;11452;53.368;14.658;2022-08-07T20:14:24;101812.63;;;20.31;45.55
22572;BME280;11452;53.368;14.658;2022-08-07T20:19:34;101819.42;;;20.20;45.85
22572;BME280;11452;53.368;14.658;2022-08-07T20:24:47;101832.34;;;19.99;46.16
22572;BME280;11452;53.368;14.658;2022-08-07T20:29:58;101837.16;;;19.61;45.87
22572;BME280;11452;53.368;14.658;2022-08-07T20:40:20;101835.09;;;19.46;47.79
22572;BME280;11452;53.368;14.658;2022-08-07T20:45:28;101839.92;;;19.48;47.97
22572;BME280;11452;53.368;14.658;2022-08-07T20:50:39;101841.38;;;19.47;48.17
22572;BME280;11452;53.368;14.658;2022-08-07T20:55:48;101850.31;;;19.36;48.14
22572;BME280;11452;53.368;14.658;2022-08-07T21:01:02;101848.00;;;19.19;48.58
22572;BME280;11452;53.368;14.658;2022-08-07T21:06:09;101856.73;;;19.17;49.07
22572;BME280;11452;53.368;14.658;2022-08-07T21:11:20;101850.72;;;19.19;49.27
22572;BME280;11452;53.368;14.658;2022-08-07T21:16:42;101854.51;;;19.11;48.91
22572;BME280;11452;53.368;14.658;2022-08-07T21:21:49;101852.63;;;18.93;49.72
22572;BME280;11452;53.368;14.658;2022-08-07T21:27:28;101849.92;;;18.93;50.18
22572;BME280;11452;53.368;14.658;2022-08-07T21:32:54;101847.59;;;18.94;50.47
22572;BME280;11452;53.368;14.658;2022-08-07T21:43:19;101850.45;;;18.80;50.62
22572;BME280;11452;53.368;14.658;2022-08-07T21:48:45;101857.72;;;18.79;51.07
22572;BME280;11452;53.368;14.658;2022-08-07T21:54:07;101862.32;;;18.84;51.52
22572;BME280;11452;53.368;14.658;2022-08-07T21:59:28;101841.19;;;18.77;51.66
22572;BME280;11452;53.368;14.658;2022-08-07T22:04:30;101857.55;;;18.88;51.81
22572;BME280;11452;53.368;14.658;2022-08-07T22:09:39;101864.05;;;18.85;51.93
22572;BME280;11452;53.368;14.658;2022-08-07T22:25:35;101865.67;;;18.88;52.45
22572;BME280;11452;53.368;14.658;2022-08-07T22:36:30;101855.70;;;18.88;52.64
22572;BME280;11452;53.368;14.658;2022-08-07T22:41:43;101855.98;;;18.78;52.65
22572;BME280;11452;53.368;14.658;2022-08-07T23:19:20;101856.98;;;18.52;53.67
22572;BME280;11452;53.368;14.658;2022-08-07T23:30:11;101859.80;;;18.25;53.73
22572;BME280;11452;53.368;14.658;2022-08-07T23:35:30;101862.78;;;18.15;54.28
22572;BME280;11452;53.368;14.658;2022-08-07T23:40:55;101859.59;;;18.15;54.32
22572;BME280;11452;53.368;14.658;2022-08-07T23:51:32;101853.34;;;18.08;54.49
22572;BME280;11452;53.368;14.658;2022-08-07T23:56:48;101849.88;;;18.06;54.62
